createdAt,value
2023-05-23T00:00:15.432Z,7.97
2023-05-23T00:01:18.759Z,8.18
2023-05-23T00:02:21.617Z,8.43
2023-05-23T00:03:23.921Z,9.73
2023-05-23T00:04:27.346Z,9.48
2023-05-23T00:05:29.387Z,10.32
2023-05-23T00:06:32.530Z,15.80
2023-05-23T00:07:34.822Z,9.85
2023-05-23T00:08:37.651Z,10.38
2023-05-23T00:09:39.533Z,8.00
2023-05-23T00:10:42.347Z,8.50
2023-05-23T00:11:45.213Z,8.55
2023-05-23T00:12:48.368Z,8.50
2023-05-23T00:13:51.276Z,9.55
2023-05-23T00:14:54.493Z,11.43
2023-05-23T00:15:56.387Z,9.07
2023-05-23T00:17:01.618Z,9.40
2023-05-23T00:18:03.652Z,10.00
2023-05-23T00:19:06.520Z,10.15
2023-05-23T00:20:11.856Z,9.13
2023-05-23T00:21:14.703Z,10.25
2023-05-23T00:22:17.461Z,11.75
2023-05-23T00:23:21.288Z,9.30
2023-05-23T00:24:23.157Z,11.30
2023-05-23T00:25:33.940Z,7.82
2023-05-23T00:26:36.288Z,11.40
2023-05-23T00:27:39.302Z,8.82
2023-05-23T00:28:41.159Z,11.57
2023-05-23T00:29:43.998Z,12.73
2023-05-23T00:30:45.907Z,10.07
2023-05-23T00:31:48.803Z,8.63
2023-05-23T00:32:54.468Z,8.43
2023-05-23T00:33:57.357Z,9.27
2023-05-23T00:34:59.227Z,11.02
2023-05-23T00:36:02.044Z,6.85
2023-05-23T00:37:05.576Z,9.32
2023-05-23T00:38:08.796Z,8.80
2023-05-23T00:39:19.000Z,9.85
2023-05-23T00:40:22.144Z,8.55
2023-05-23T00:41:25.956Z,7.60
2023-05-23T00:42:28.781Z,11.35
2023-05-23T00:43:31.523Z,8.82
2023-05-23T00:44:34.404Z,9.75
2023-05-23T00:45:36.456Z,7.97
2023-05-23T00:46:39.701Z,12.55
2023-05-23T00:47:42.413Z,8.07
2023-05-23T00:48:46.657Z,8.70
2023-05-23T00:49:48.728Z,10.10
2023-05-23T00:50:51.678Z,8.95
2023-05-23T00:51:53.749Z,8.30
2023-05-23T00:52:58.645Z,7.45
2023-05-23T00:54:01.902Z,9.60
2023-05-23T00:55:05.938Z,9.60
2023-05-23T00:56:08.164Z,10.73
2023-05-23T00:57:11.260Z,8.80
2023-05-23T00:58:15.223Z,8.32
2023-05-23T00:59:18.301Z,12.98
2023-05-23T01:00:20.596Z,11.57
2023-05-23T01:01:24.261Z,9.77
2023-05-23T01:02:26.237Z,10.82
2023-05-23T01:03:30.320Z,11.50
2023-05-23T01:04:34.114Z,11.73
2023-05-23T01:05:36.937Z,11.52
2023-05-23T01:06:38.856Z,14.98
2023-05-23T01:07:41.767Z,9.10
2023-05-23T01:08:44.818Z,8.93
2023-05-23T01:09:47.431Z,11.20
2023-05-23T01:10:51.199Z,10.40
2023-05-23T01:12:14.258Z,10.55
2023-05-23T01:13:24.971Z,8.40
2023-05-23T01:14:32.646Z,8.82
2023-05-23T01:15:43.365Z,12.02
2023-05-23T01:16:50.424Z,8.52
2023-05-23T01:18:00.397Z,8.25
2023-05-23T01:19:16.485Z,12.93
2023-05-23T01:20:25.146Z,11.85
2023-05-23T01:21:27.635Z,10.25
2023-05-23T01:23:02.036Z,11.32
2023-05-23T01:24:29.396Z,8.75
2023-05-23T01:25:53.689Z,9.23
2023-05-23T01:27:07.994Z,8.50
2023-05-23T01:28:16.358Z,9.60
2023-05-23T01:29:24.375Z,8.73
2023-05-23T01:30:31.672Z,8.77
2023-05-23T01:31:36.721Z,9.07
2023-05-23T01:32:41.023Z,15.40
2023-05-23T01:33:44.035Z,15.48
2023-05-23T01:34:47.922Z,9.00
2023-05-23T01:35:50.343Z,9.45
2023-05-23T01:36:55.890Z,8.50
2023-05-23T01:37:57.789Z,8.93
2023-05-23T01:39:00.614Z,9.10
2023-05-23T01:40:02.613Z,9.98
2023-05-23T01:41:05.441Z,9.93
2023-05-23T01:42:08.493Z,11.50
2023-05-23T01:43:12.859Z,10.20
2023-05-23T01:44:14.865Z,9.48
2023-05-23T01:45:18.894Z,8.68
2023-05-23T01:46:22.061Z,9.07
2023-05-23T01:47:25.089Z,12.57
2023-05-23T01:48:28.918Z,9.85
2023-05-23T01:49:32.756Z,11.07
2023-05-23T01:50:34.954Z,10.18
2023-05-23T01:51:37.984Z,10.00
2023-05-23T01:52:40.050Z,8.48
2023-05-23T01:53:44.119Z,10.40
2023-05-23T01:54:49.063Z,10.52
2023-05-23T01:55:53.429Z,12.63
2023-05-23T01:56:57.276Z,16.23
2023-05-23T01:58:01.554Z,9.38
2023-05-23T01:59:04.855Z,9.38
2023-05-23T02:00:10.932Z,13.10
2023-05-23T02:01:12.947Z,11.95
2023-05-23T02:02:15.940Z,10.27
2023-05-23T02:03:18.397Z,15.93
2023-05-23T02:04:22.506Z,9.27
2023-05-23T02:05:24.677Z,12.07
2023-05-23T02:06:27.800Z,8.63
2023-05-23T02:07:29.628Z,9.82
2023-05-23T02:08:32.420Z,11.90
2023-05-23T02:09:34.327Z,12.45
2023-05-23T02:10:37.190Z,12.73
2023-05-23T02:11:39.024Z,10.85
2023-05-23T02:12:41.879Z,10.15
2023-05-23T02:13:43.783Z,12.52
2023-05-23T02:14:47.955Z,9.70
2023-05-23T02:15:49.894Z,8.85
2023-05-23T02:16:52.976Z,10.60
2023-05-23T02:17:54.926Z,10.57
2023-05-23T02:18:58.555Z,10.05
2023-05-23T02:20:00.701Z,12.10
2023-05-23T02:21:03.552Z,10.80
2023-05-23T02:22:05.646Z,10.40
2023-05-23T02:23:09.236Z,10.75
2023-05-23T02:24:11.498Z,10.13
2023-05-23T02:25:15.712Z,10.02
2023-05-23T02:26:17.946Z,10.77
2023-05-23T02:27:21.011Z,11.60
2023-05-23T02:28:22.965Z,9.98
2023-05-23T02:29:25.892Z,11.57
2023-05-23T02:30:29.311Z,10.27
2023-05-23T02:31:32.284Z,15.05
2023-05-23T02:32:34.211Z,9.68
2023-05-23T02:33:37.133Z,9.85
2023-05-23T02:34:39.130Z,11.75
2023-05-23T02:35:42.355Z,12.48
2023-05-23T02:36:44.370Z,11.90
2023-05-23T02:37:47.203Z,11.07
2023-05-23T02:38:49.049Z,11.98
2023-05-23T02:39:51.858Z,10.45
2023-05-23T02:40:53.947Z,11.80
2023-05-23T02:41:56.837Z,17.05
2023-05-23T02:42:58.708Z,10.32
2023-05-23T02:44:01.640Z,10.50
2023-05-23T02:45:03.820Z,11.07
2023-05-23T02:46:08.098Z,10.75
2023-05-23T02:47:10.718Z,9.88
2023-05-23T02:48:13.517Z,10.82
2023-05-23T02:49:15.570Z,9.65
2023-05-23T02:50:18.558Z,11.85
2023-05-23T02:51:20.795Z,13.05
2023-05-23T02:52:23.665Z,17.80
2023-05-23T02:53:25.487Z,11.50
2023-05-23T02:54:28.282Z,13.25
2023-05-23T02:55:31.821Z,11.93
2023-05-23T02:56:34.675Z,11.55
2023-05-23T02:57:36.573Z,10.82
2023-05-23T02:58:39.975Z,10.88
2023-05-23T02:59:41.970Z,11.85
2023-05-23T03:00:44.855Z,10.63
2023-05-23T03:01:48.137Z,11.80
2023-05-23T03:02:51.255Z,12.45
2023-05-23T03:03:53.227Z,14.35
2023-05-23T03:04:57.345Z,13.57
2023-05-23T03:05:59.600Z,12.85
2023-05-23T03:07:05.451Z,9.48
2023-05-23T03:08:09.955Z,10.35
2023-05-23T03:09:11.819Z,12.60
2023-05-23T03:10:14.642Z,11.43
2023-05-23T03:11:16.543Z,15.75
2023-05-23T03:12:19.334Z,12.48
2023-05-23T03:13:21.171Z,10.43
2023-05-23T03:14:24.155Z,10.38
2023-05-23T03:15:25.984Z,12.00
2023-05-23T03:16:28.908Z,12.52
2023-05-23T03:17:32.194Z,14.07
2023-05-23T03:18:35.004Z,12.48
2023-05-23T03:19:37.501Z,12.30
2023-05-23T03:20:40.522Z,16.33
2023-05-23T03:21:42.389Z,11.75
2023-05-23T03:22:45.698Z,10.48
2023-05-23T03:23:47.705Z,11.10
2023-05-23T03:24:50.561Z,12.73
2023-05-23T03:25:52.485Z,12.07
2023-05-23T03:26:55.873Z,12.27
2023-05-23T03:27:58.117Z,10.20
2023-05-23T03:29:01.085Z,13.15
2023-05-23T03:30:03.826Z,12.10
2023-05-23T03:31:06.694Z,13.13
2023-05-23T03:32:08.612Z,11.20
2023-05-23T03:33:12.926Z,13.48
2023-05-23T03:34:14.872Z,12.75
2023-05-23T03:35:17.952Z,11.50
2023-05-23T03:36:21.845Z,13.25
2023-05-23T03:37:23.688Z,10.82
2023-05-23T03:38:27.044Z,12.50
2023-05-23T03:39:28.912Z,12.02
2023-05-23T03:40:31.738Z,10.07
2023-05-23T03:41:33.619Z,10.38
2023-05-23T03:42:38.052Z,15.15
2023-05-23T03:43:39.944Z,12.70
2023-05-23T03:44:42.726Z,18.75
2023-05-23T03:45:44.974Z,13.82
2023-05-23T03:46:48.055Z,11.65
2023-05-23T03:47:49.896Z,10.95
2023-05-23T03:48:54.067Z,10.63
2023-05-23T03:49:55.936Z,17.17
2023-05-23T03:50:58.742Z,15.70
2023-05-23T03:52:00.608Z,9.73
2023-05-23T03:53:03.419Z,11.60
2023-05-23T03:54:05.595Z,14.13
2023-05-23T03:55:09.367Z,12.50
2023-05-23T03:56:11.227Z,11.63
2023-05-23T03:57:14.107Z,13.93
2023-05-23T03:58:16.223Z,9.98
2023-05-23T03:59:19.630Z,11.05
2023-05-23T04:00:21.606Z,11.70
2023-05-23T04:01:24.910Z,13.45
2023-05-23T04:02:26.882Z,12.30
2023-05-23T04:03:32.573Z,12.15
2023-05-23T04:04:36.120Z,12.23
2023-05-23T04:05:39.376Z,12.70
2023-05-23T04:06:41.555Z,12.13
2023-05-23T04:07:44.974Z,13.80
2023-05-23T04:08:46.804Z,12.50
2023-05-23T04:09:49.604Z,11.50
2023-05-23T04:10:51.447Z,10.30
2023-05-23T04:11:54.246Z,13.18
2023-05-23T04:12:57.146Z,13.65
2023-05-23T04:13:59.943Z,10.68
2023-05-23T04:15:02.399Z,13.75
2023-05-23T04:16:05.802Z,15.05
2023-05-23T04:17:09.250Z,16.08
2023-05-23T04:18:12.167Z,12.40
2023-05-23T04:19:14.014Z,11.88
2023-05-23T04:20:18.504Z,11.25
2023-05-23T04:21:20.312Z,16.17
2023-05-23T04:22:23.124Z,11.55
2023-05-23T04:23:25.001Z,12.80
2023-05-23T04:24:27.785Z,15.60
2023-05-23T04:25:29.638Z,12.25
2023-05-23T04:26:33.014Z,11.63
2023-05-23T04:27:34.950Z,11.25
2023-05-23T04:28:39.883Z,12.43
2023-05-23T04:29:41.819Z,11.85
2023-05-23T04:30:44.783Z,13.80
2023-05-23T04:31:46.786Z,12.52
2023-05-23T04:32:49.728Z,12.32
2023-05-23T04:33:52.403Z,11.90
2023-05-23T04:34:56.760Z,14.75
2023-05-23T04:36:00.746Z,16.25
2023-05-23T04:37:03.709Z,11.52
2023-05-23T04:38:05.569Z,13.32
2023-05-23T04:39:08.435Z,18.65
2023-05-23T04:40:11.298Z,11.60
2023-05-23T04:41:16.705Z,11.13
2023-05-23T04:42:18.589Z,12.85
2023-05-23T04:43:21.945Z,12.45
2023-05-23T04:44:23.875Z,11.75
2023-05-23T04:45:26.681Z,14.02
2023-05-23T04:46:28.979Z,11.40
2023-05-23T04:47:37.038Z,15.07
2023-05-23T04:48:39.387Z,11.88
2023-05-23T04:49:42.273Z,12.48
2023-05-23T04:50:47.440Z,11.88
2023-05-23T04:51:51.757Z,12.38
2023-05-23T04:52:53.637Z,17.67
2023-05-23T04:53:56.799Z,14.52
2023-05-23T04:54:58.872Z,14.23
2023-05-23T04:56:02.509Z,11.88
2023-05-23T04:57:04.720Z,14.32
2023-05-23T04:58:07.936Z,16.33
2023-05-23T04:59:11.301Z,11.00
2023-05-23T05:00:15.490Z,12.82
2023-05-23T05:01:17.456Z,11.02
2023-05-23T05:02:20.437Z,12.20
2023-05-23T05:03:25.031Z,12.20
2023-05-23T05:04:27.885Z,12.30
2023-05-23T05:05:29.845Z,14.90
2023-05-23T05:06:33.498Z,12.93
2023-05-23T05:07:36.914Z,13.15
2023-05-23T05:08:40.734Z,11.45
2023-05-23T05:09:42.597Z,13.20
2023-05-23T05:10:45.418Z,12.85
2023-05-23T05:11:47.685Z,18.42
2023-05-23T05:12:50.518Z,17.30
2023-05-23T05:13:52.353Z,14.02
2023-05-23T05:14:55.445Z,14.23
2023-05-23T05:15:57.303Z,15.25
2023-05-23T05:17:03.055Z,11.68
2023-05-23T05:18:05.233Z,11.43
2023-05-23T05:19:08.185Z,15.43
2023-05-23T05:20:11.190Z,10.85
2023-05-23T05:21:14.003Z,15.00
2023-05-23T05:22:16.853Z,17.58
2023-05-23T05:23:20.098Z,13.02
2023-05-23T05:24:22.900Z,15.32
2023-05-23T05:25:25.029Z,13.27
2023-05-23T05:26:28.143Z,15.27
2023-05-23T05:27:30.030Z,16.98
2023-05-23T05:28:32.972Z,12.68
2023-05-23T05:29:35.365Z,13.65
2023-05-23T05:30:38.758Z,14.80
2023-05-23T05:31:41.121Z,14.95
2023-05-23T05:32:46.312Z,12.70
2023-05-23T05:34:13.230Z,13.18
2023-05-23T05:35:16.921Z,12.02
2023-05-23T05:36:20.758Z,12.07
2023-05-23T05:37:23.667Z,14.00
2023-05-23T05:38:26.913Z,14.48
2023-05-23T05:39:29.712Z,14.43
2023-05-23T05:40:32.139Z,14.45
2023-05-23T05:41:34.940Z,13.63
2023-05-23T05:42:36.827Z,16.38
2023-05-23T05:43:39.649Z,12.88
2023-05-23T05:44:42.518Z,11.90
2023-05-23T05:45:44.403Z,15.30
2023-05-23T05:46:48.650Z,11.38
2023-05-23T05:47:50.801Z,15.13
2023-05-23T05:48:53.648Z,11.90
2023-05-23T05:49:55.545Z,15.85
2023-05-23T05:51:01.024Z,12.38
2023-05-23T05:52:02.988Z,13.48
2023-05-23T05:53:06.005Z,13.23
2023-05-23T05:54:09.364Z,12.70
2023-05-23T05:55:12.698Z,12.50
2023-05-23T05:56:14.604Z,11.13
2023-05-23T05:57:17.432Z,12.75
2023-05-23T05:58:19.289Z,15.23
2023-05-23T05:59:22.136Z,10.02
2023-05-23T06:00:25.226Z,8.48
2023-05-23T06:01:28.116Z,9.20
2023-05-23T06:02:30.058Z,9.40
2023-05-23T06:03:33.828Z,12.70
2023-05-23T06:04:35.873Z,9.35
2023-05-23T06:05:39.439Z,9.52
2023-05-23T06:06:41.311Z,8.82
2023-05-23T06:07:44.952Z,10.98
2023-05-23T06:08:47.795Z,11.30
2023-05-23T06:09:51.105Z,13.52
2023-05-23T06:10:53.912Z,16.00
2023-05-23T06:11:55.748Z,11.88
2023-05-23T06:12:59.906Z,12.15
2023-05-23T06:14:01.770Z,11.05
2023-05-23T06:15:05.231Z,10.88
2023-05-23T06:16:07.299Z,13.55
2023-05-23T06:17:10.209Z,11.00
2023-05-23T06:18:12.134Z,13.65
2023-05-23T06:19:15.040Z,11.10
2023-05-23T06:20:18.046Z,9.77
2023-05-23T06:21:20.056Z,10.35
2023-05-23T06:22:22.953Z,11.40
2023-05-23T06:23:24.934Z,11.35
2023-05-23T06:24:27.789Z,10.18
2023-05-23T06:25:31.020Z,8.38
2023-05-23T06:26:33.941Z,7.60
2023-05-23T06:27:35.823Z,8.23
2023-05-23T06:28:39.743Z,8.43
2023-05-23T06:29:41.640Z,14.73
2023-05-23T06:30:44.636Z,7.90
2023-05-23T06:31:47.462Z,7.80
2023-05-23T06:32:49.380Z,8.80
2023-05-23T06:33:52.237Z,6.82
2023-05-23T06:34:54.155Z,7.18
2023-05-23T06:35:57.303Z,6.95
2023-05-23T06:36:59.287Z,8.98
2023-05-23T06:38:02.159Z,7.93
2023-05-23T06:39:04.292Z,7.60
2023-05-23T06:40:07.838Z,7.50
2023-05-23T06:41:17.072Z,10.20
2023-05-23T06:42:20.068Z,7.25
2023-05-23T06:43:21.930Z,10.18
2023-05-23T06:44:24.745Z,9.88
2023-05-23T06:45:30.304Z,11.32
2023-05-23T06:46:33.630Z,13.07
2023-05-23T06:47:35.517Z,8.27
2023-05-23T06:48:38.346Z,8.52
2023-05-23T06:49:40.262Z,8.60
2023-05-23T06:50:43.232Z,7.45
2023-05-23T06:51:46.339Z,10.00
2023-05-23T06:52:48.538Z,9.05
2023-05-23T06:53:51.404Z,7.55
2023-05-23T06:54:53.327Z,7.65
2023-05-23T06:55:56.213Z,8.70
2023-05-23T06:56:59.529Z,7.38
2023-05-23T06:58:04.142Z,7.25
2023-05-23T06:59:06.118Z,8.40
2023-05-23T07:00:10.144Z,9.07
2023-05-23T07:01:12.125Z,9.38
2023-05-23T07:02:14.958Z,8.43
2023-05-23T07:03:17.171Z,7.75
2023-05-23T07:04:20.144Z,8.52
2023-05-23T07:05:22.158Z,11.93
2023-05-23T07:06:25.182Z,6.45
2023-05-23T07:07:27.037Z,9.80
2023-05-23T07:08:30.176Z,7.43
2023-05-23T07:09:33.018Z,7.78
2023-05-23T07:10:35.344Z,7.50
2023-05-23T07:11:39.446Z,9.80
2023-05-23T07:12:42.960Z,9.48
2023-05-23T07:13:46.322Z,6.43
2023-05-23T07:14:48.170Z,9.02
2023-05-23T07:15:51.063Z,7.50
2023-05-23T07:16:53.911Z,7.32
2023-05-23T07:17:56.031Z,8.50
2023-05-23T07:18:58.939Z,6.70
2023-05-23T07:20:01.348Z,8.95
2023-05-23T07:21:04.400Z,8.38
2023-05-23T07:22:07.310Z,5.90
2023-05-23T07:23:09.161Z,8.80
2023-05-23T07:24:12.032Z,7.95
2023-05-23T07:25:14.898Z,6.40
2023-05-23T07:26:16.977Z,7.70
2023-05-23T07:27:19.862Z,7.68
2023-05-23T07:28:23.144Z,8.85
2023-05-23T07:29:26.264Z,6.45
2023-05-23T07:30:28.148Z,8.00
2023-05-23T07:31:31.036Z,6.60
2023-05-23T07:32:34.658Z,8.35
2023-05-23T07:33:37.561Z,10.48
2023-05-23T07:34:39.605Z,15.18
2023-05-23T07:35:42.687Z,6.97
2023-05-23T07:36:44.663Z,7.40
2023-05-23T07:37:48.999Z,6.57
2023-05-23T07:38:53.226Z,7.50
2023-05-23T07:39:56.333Z,5.97
2023-05-23T07:41:10.701Z,8.65
2023-05-23T07:42:14.179Z,8.48
2023-05-23T07:43:17.092Z,9.93
2023-05-23T07:44:23.176Z,6.10
2023-05-23T07:45:27.668Z,7.40
2023-05-23T07:46:29.605Z,7.88
2023-05-23T07:47:32.544Z,6.57
2023-05-23T07:48:35.661Z,6.30
2023-05-23T07:49:38.521Z,8.40
2023-05-23T07:50:40.913Z,8.13
2023-05-23T07:51:44.156Z,7.40
2023-05-23T07:52:46.646Z,8.18
2023-05-23T07:53:49.514Z,6.93
2023-05-23T07:54:52.363Z,7.03
2023-05-23T07:55:55.243Z,6.30
2023-05-23T07:56:58.094Z,7.63
2023-05-23T07:58:01.461Z,7.85
2023-05-23T07:59:03.325Z,8.95
2023-05-23T08:00:10.113Z,7.30
2023-05-23T08:01:11.995Z,7.80
2023-05-23T08:02:14.895Z,6.65
2023-05-23T08:03:19.076Z,6.95
2023-05-23T08:04:21.373Z,7.40
2023-05-23T08:05:26.459Z,6.10
2023-05-23T08:06:29.296Z,6.68
2023-05-23T08:07:32.164Z,6.93
2023-05-23T08:08:35.021Z,6.57
2023-05-23T08:09:37.002Z,7.32
2023-05-23T08:10:40.174Z,6.60
2023-05-23T08:11:42.403Z,6.15
2023-05-23T08:12:45.318Z,6.80
2023-05-23T08:13:48.270Z,5.45
2023-05-23T08:14:52.386Z,7.70
2023-05-23T08:15:56.919Z,6.10
2023-05-23T08:16:59.054Z,9.32
2023-05-23T08:18:02.139Z,7.30
2023-05-23T08:19:05.476Z,7.05
2023-05-23T08:20:10.335Z,6.05
2023-05-23T08:21:13.182Z,5.60
2023-05-23T08:22:15.123Z,8.10
2023-05-23T08:23:18.864Z,6.10
2023-05-23T08:24:20.802Z,6.68
2023-05-23T08:25:24.549Z,6.82
2023-05-23T08:26:30.423Z,7.00
2023-05-23T08:27:33.857Z,6.80
2023-05-23T08:28:36.728Z,7.32
2023-05-23T08:29:39.563Z,5.90
2023-05-23T08:30:42.767Z,6.70
2023-05-23T08:31:47.247Z,6.03
2023-05-23T08:32:50.369Z,6.93
2023-05-23T08:33:53.231Z,10.03
2023-05-23T08:34:56.164Z,6.03
2023-05-23T08:35:59.023Z,6.55
2023-05-23T08:37:01.181Z,6.70
2023-05-23T08:38:09.235Z,5.93
2023-05-23T08:39:14.116Z,7.93
2023-05-23T08:40:20.720Z,5.65
2023-05-23T08:41:27.843Z,6.90
2023-05-23T08:42:29.822Z,5.32
2023-05-23T08:43:32.797Z,6.38
2023-05-23T08:44:34.664Z,6.57
2023-05-23T08:45:37.580Z,6.15
2023-05-23T08:46:46.640Z,6.43
2023-05-23T08:47:52.319Z,8.10
2023-05-23T08:48:56.605Z,5.88
2023-05-23T08:49:59.973Z,6.50
2023-05-23T08:51:04.505Z,5.35
2023-05-23T08:52:13.060Z,7.63
2023-05-23T08:53:20.222Z,6.85
2023-05-23T08:54:22.451Z,6.00
2023-05-23T08:55:27.787Z,6.22
2023-05-23T08:56:30.832Z,6.38
2023-05-23T08:57:34.129Z,6.07
2023-05-23T08:58:38.827Z,6.90
2023-05-23T08:59:41.673Z,6.05
2023-05-23T09:00:44.949Z,7.40
2023-05-23T09:01:48.758Z,4.97
2023-05-23T09:02:54.550Z,5.22
2023-05-23T09:04:00.306Z,6.50
2023-05-23T09:05:02.565Z,6.45
2023-05-23T09:06:07.159Z,6.82
2023-05-23T09:07:12.565Z,5.22
2023-05-23T09:08:15.326Z,6.35
2023-05-23T09:09:18.352Z,5.50
2023-05-23T09:10:20.399Z,5.97
2023-05-23T09:11:24.274Z,6.05
2023-05-23T09:12:26.200Z,6.00
2023-05-23T09:13:29.652Z,6.75
2023-05-23T09:14:32.491Z,7.43
2023-05-23T09:15:35.321Z,7.63
2023-05-23T09:16:38.159Z,7.45
2023-05-23T09:17:41.388Z,7.05
2023-05-23T09:18:46.262Z,5.93
2023-05-23T09:19:48.450Z,5.78
2023-05-23T09:20:51.401Z,6.72
2023-05-23T09:21:54.716Z,8.35
2023-05-23T09:22:57.553Z,6.50
2023-05-23T09:23:59.562Z,5.97
2023-05-23T09:25:03.106Z,5.78
2023-05-23T09:26:06.138Z,5.53
2023-05-23T09:27:09.558Z,6.75
2023-05-23T09:28:11.706Z,5.68
2023-05-23T09:29:14.542Z,5.10
2023-05-23T09:30:17.758Z,5.90
2023-05-23T09:31:20.698Z,6.13
2023-05-23T09:32:22.744Z,5.55
2023-05-23T09:33:30.963Z,5.97
2023-05-23T09:34:34.194Z,8.25
2023-05-23T09:35:37.021Z,7.00
2023-05-23T09:36:41.534Z,5.90
2023-05-23T09:37:46.821Z,6.50
2023-05-23T09:38:48.880Z,5.50
2023-05-23T09:39:51.809Z,7.50
2023-05-23T09:40:56.157Z,9.57
2023-05-23T09:42:00.568Z,6.95
2023-05-23T09:43:05.013Z,7.40
2023-05-23T09:44:08.963Z,6.93
2023-05-23T09:45:12.702Z,7.70
2023-05-23T09:46:14.618Z,9.15
2023-05-23T09:47:17.648Z,9.52
2023-05-23T09:48:19.566Z,7.53
2023-05-23T09:49:22.839Z,7.60
2023-05-23T09:50:31.011Z,5.28
2023-05-23T09:51:33.987Z,6.45
2023-05-23T09:52:38.315Z,10.00
2023-05-23T09:53:42.239Z,8.98
2023-05-23T09:54:46.518Z,6.22
2023-05-23T09:55:50.999Z,6.70
2023-05-23T09:56:56.115Z,6.25
2023-05-23T09:57:59.769Z,7.15
2023-05-23T09:59:09.092Z,8.95
2023-05-23T10:00:14.057Z,13.57
2023-05-23T10:01:17.841Z,6.88
2023-05-23T10:02:55.368Z,9.38
2023-05-23T10:04:00.483Z,7.22
2023-05-23T10:05:04.277Z,7.35
2023-05-23T10:06:14.058Z,10.15
2023-05-23T10:07:23.375Z,10.75
2023-05-23T10:08:31.402Z,8.73
2023-05-23T10:09:37.597Z,6.25
2023-05-23T10:11:27.594Z,12.57
2023-05-23T10:12:48.336Z,6.13
2023-05-23T10:13:53.647Z,8.50
2023-05-23T10:14:59.160Z,8.98
2023-05-23T10:16:08.081Z,6.63
2023-05-23T10:17:15.793Z,6.70
2023-05-23T10:18:30.552Z,10.02
2023-05-23T10:19:38.847Z,8.10
2023-05-23T10:20:44.329Z,8.18
2023-05-23T10:21:54.412Z,7.35
2023-05-23T10:22:57.732Z,6.28
2023-05-23T10:24:01.338Z,8.57
2023-05-23T10:25:05.302Z,7.93
2023-05-23T10:26:07.948Z,10.35
2023-05-23T10:27:11.251Z,7.43
2023-05-23T10:28:14.767Z,8.00
2023-05-23T10:29:17.610Z,6.78
2023-05-23T10:30:20.061Z,7.88
2023-05-23T10:31:23.903Z,9.20
2023-05-23T10:32:28.000Z,9.02
2023-05-23T10:33:34.959Z,6.05
2023-05-23T10:34:42.789Z,7.45
2023-05-23T10:35:55.807Z,9.30
2023-05-23T10:37:01.662Z,7.22
2023-05-23T10:38:13.778Z,10.45
2023-05-23T10:39:24.308Z,8.02
2023-05-23T10:40:35.627Z,6.30
2023-05-23T10:41:45.929Z,7.53
2023-05-23T10:42:56.788Z,7.85
2023-05-23T10:44:07.229Z,7.20
2023-05-23T10:45:17.636Z,7.00
2023-05-23T10:46:22.608Z,7.55
2023-05-23T10:47:28.677Z,8.75
2023-05-23T10:48:36.289Z,9.35
2023-05-23T10:49:39.144Z,6.28
2023-05-23T10:50:42.447Z,5.35
2023-05-23T10:51:51.204Z,5.35
2023-05-23T10:52:55.859Z,6.75
2023-05-23T10:53:58.980Z,8.90
2023-05-23T10:55:00.845Z,6.68
2023-05-23T10:56:06.288Z,7.18
2023-05-23T10:57:10.971Z,8.25
2023-05-23T10:58:19.708Z,8.20
2023-05-23T10:59:22.375Z,6.82
2023-05-23T11:00:25.769Z,5.78
2023-05-23T11:01:28.751Z,6.60
2023-05-23T11:02:30.818Z,19.30
2023-05-23T11:03:38.649Z,6.05
2023-05-23T11:04:41.546Z,7.05
2023-05-23T11:05:52.665Z,7.00
2023-05-23T11:06:56.923Z,6.43
2023-05-23T11:08:11.694Z,5.68
2023-05-23T11:09:18.937Z,7.18
2023-05-23T11:10:20.845Z,6.10
2023-05-23T11:11:23.644Z,6.95
2023-05-23T11:12:37.903Z,9.40
2023-05-23T11:13:59.991Z,6.00
2023-05-23T11:15:03.102Z,6.63
2023-05-23T11:16:27.849Z,6.85
2023-05-23T11:17:34.744Z,7.82
2023-05-23T11:18:39.001Z,6.40
2023-05-23T11:19:55.413Z,7.63
2023-05-23T11:21:00.806Z,6.43
2023-05-23T11:22:03.655Z,5.75
2023-05-23T11:23:10.476Z,6.20
2023-05-23T11:24:12.533Z,6.10
2023-05-23T11:25:17.017Z,9.18
2023-05-23T11:26:31.888Z,8.13
2023-05-23T11:27:37.706Z,7.30
2023-05-23T11:28:58.725Z,7.00
2023-05-23T11:30:04.139Z,6.30
2023-05-23T11:31:08.572Z,6.45
2023-05-23T11:32:16.034Z,6.13
2023-05-23T11:33:20.993Z,6.68
2023-05-23T11:34:23.236Z,6.70
2023-05-23T11:35:26.661Z,6.88
2023-05-23T11:36:29.991Z,5.82
2023-05-23T11:37:32.691Z,6.32
2023-05-23T11:38:37.001Z,6.63
2023-05-23T11:39:40.387Z,7.95
2023-05-23T11:40:45.159Z,5.40
2023-05-23T11:41:58.808Z,6.20
2023-05-23T11:43:03.995Z,5.90
2023-05-23T11:44:12.172Z,7.13
2023-05-23T11:45:15.073Z,7.93
2023-05-23T11:46:18.309Z,5.70
2023-05-23T11:47:20.410Z,6.25
2023-05-23T11:48:23.248Z,7.85
2023-05-23T11:49:25.110Z,6.75
2023-05-23T11:50:27.944Z,10.10
2023-05-23T11:51:29.875Z,5.80
2023-05-23T11:52:33.992Z,6.40
2023-05-23T11:53:38.569Z,6.20
2023-05-23T11:54:41.742Z,5.75
2023-05-23T11:55:53.045Z,6.10
2023-05-23T11:56:55.994Z,5.90
2023-05-23T11:57:59.036Z,6.75
2023-05-23T11:59:00.940Z,6.82
2023-05-23T12:00:04.404Z,6.15
2023-05-23T12:01:08.950Z,5.40
2023-05-23T12:02:10.849Z,5.40
2023-05-23T12:03:13.936Z,6.35
2023-05-23T12:04:16.987Z,6.38
2023-05-23T12:05:19.153Z,5.72
2023-05-23T12:06:24.399Z,6.68
2023-05-23T12:07:26.384Z,4.93
2023-05-23T12:08:29.256Z,6.68
2023-05-23T12:09:32.599Z,9.00
2023-05-23T12:10:35.804Z,6.07
2023-05-23T12:11:37.792Z,6.13
2023-05-23T12:12:42.904Z,5.20
2023-05-23T12:13:44.909Z,5.82
2023-05-23T12:14:47.818Z,5.88
2023-05-23T12:15:51.623Z,6.03
2023-05-23T12:16:57.723Z,7.35
2023-05-23T12:17:59.733Z,8.15
2023-05-23T12:19:04.609Z,5.70
2023-05-23T12:20:09.007Z,5.13
2023-05-23T12:21:10.963Z,6.38
2023-05-23T12:22:13.839Z,6.20
2023-05-23T12:23:19.379Z,5.80
2023-05-23T12:24:23.193Z,5.60
2023-05-23T12:25:33.034Z,5.55
2023-05-23T12:26:47.592Z,5.63
2023-05-23T12:27:50.423Z,10.98
2023-05-23T12:28:52.325Z,18.35
2023-05-23T12:30:06.434Z,5.97
2023-05-23T12:31:13.128Z,5.68
2023-05-23T12:32:15.147Z,6.35
2023-05-23T12:33:20.741Z,6.75
2023-05-23T12:34:22.722Z,6.90
2023-05-23T12:35:27.097Z,6.05
2023-05-23T12:36:33.002Z,6.40
2023-05-23T12:37:34.964Z,4.57
2023-05-23T12:38:40.530Z,5.80
2023-05-23T12:39:45.559Z,5.68
2023-05-23T12:41:08.174Z,5.95
2023-05-23T12:42:11.373Z,6.55
2023-05-23T12:43:16.901Z,7.25
2023-05-23T12:44:18.910Z,5.38
2023-05-23T12:45:23.192Z,5.30
2023-05-23T12:46:26.953Z,8.45
2023-05-23T12:47:30.183Z,5.60
2023-05-23T12:48:33.541Z,5.70
2023-05-23T12:49:37.118Z,4.90
2023-05-23T12:50:40.044Z,5.18
2023-05-23T12:51:41.949Z,4.75
2023-05-23T12:52:44.921Z,6.05
2023-05-23T12:53:47.040Z,5.47
2023-05-23T12:54:49.868Z,5.93
2023-05-23T12:55:53.051Z,5.32
2023-05-23T12:56:56.170Z,5.93
2023-05-23T12:57:59.016Z,5.03
2023-05-23T12:59:01.996Z,7.28
2023-05-23T13:00:06.439Z,5.90
2023-05-23T13:01:08.460Z,6.60
2023-05-23T13:02:11.325Z,5.53
2023-05-23T13:03:13.179Z,5.43
2023-05-23T13:04:16.485Z,5.28
2023-05-23T13:05:18.587Z,5.47
2023-05-23T13:06:21.655Z,5.10
2023-05-23T13:07:23.865Z,5.88
2023-05-23T13:08:27.367Z,6.90
2023-05-23T13:09:30.289Z,5.25
2023-05-23T13:10:34.215Z,5.55
2023-05-23T13:11:38.385Z,5.40
2023-05-23T13:12:40.306Z,5.22
2023-05-23T13:13:43.447Z,5.43
2023-05-23T13:14:45.341Z,5.30
2023-05-23T13:15:50.533Z,5.60
2023-05-23T13:16:52.904Z,5.30
2023-05-23T13:17:55.945Z,5.20
2023-05-23T13:19:00.648Z,4.93
2023-05-23T13:20:04.948Z,5.60
2023-05-23T13:21:07.898Z,5.25
2023-05-23T13:22:10.502Z,5.30
2023-05-23T13:23:13.402Z,10.32
2023-05-23T13:24:16.247Z,6.72
2023-05-23T13:25:18.254Z,8.20
2023-05-23T13:26:21.791Z,7.30
2023-05-23T13:27:25.051Z,5.85
2023-05-23T13:28:27.855Z,6.47
2023-05-23T13:29:29.726Z,5.90
2023-05-23T13:30:32.670Z,5.50
2023-05-23T13:31:34.559Z,5.88
2023-05-23T13:32:37.512Z,7.25
2023-05-23T13:33:39.590Z,5.53
2023-05-23T13:34:43.606Z,6.32
2023-05-23T13:35:45.544Z,5.85
2023-05-23T13:36:48.335Z,5.70
2023-05-23T13:37:50.855Z,5.72
2023-05-23T13:38:53.733Z,6.53
2023-05-23T13:39:55.722Z,5.25
2023-05-23T13:40:58.563Z,4.97
2023-05-23T13:42:00.464Z,5.20
2023-05-23T13:43:04.712Z,5.50
2023-05-23T13:44:06.565Z,5.53
2023-05-23T13:45:12.417Z,4.88
2023-05-23T13:46:15.388Z,5.80
2023-05-23T13:47:18.282Z,6.35
2023-05-23T13:48:21.149Z,5.03
2023-05-23T13:49:23.086Z,5.28
2023-05-23T13:50:25.937Z,5.00
2023-05-23T13:51:27.821Z,5.43
2023-05-23T13:52:30.859Z,5.68
2023-05-23T13:53:33.664Z,5.18
2023-05-23T13:54:35.934Z,4.82
2023-05-23T13:55:38.791Z,6.47
2023-05-23T13:56:41.641Z,7.60
2023-05-23T13:57:43.556Z,4.97
2023-05-23T13:58:47.744Z,5.38
2023-05-23T13:59:49.641Z,17.63
2023-05-23T14:00:52.485Z,5.03